createdAt,value
2023-02-14T00:01:48.820Z,55.38
2023-02-14T00:04:19.704Z,55.53
2023-02-14T00:06:50.913Z,54.41
2023-02-14T00:09:20.694Z,55.05
2023-02-14T00:11:48.760Z,54.92
2023-02-14T00:14:49.968Z,53.82
2023-02-14T00:17:18.366Z,53.96
2023-02-14T00:19:46.624Z,53.95
2023-02-14T00:22:16.225Z,53.97
2023-02-14T00:24:44.229Z,53.84
2023-02-14T00:27:12.346Z,55.55
2023-02-14T00:29:40.396Z,55.22
2023-02-14T00:32:08.504Z,54.19
2023-02-14T00:34:37.721Z,53.70
2023-02-14T00:37:06.341Z,53.58
2023-02-14T00:39:35.892Z,53.06
2023-02-14T00:42:07.365Z,53.33
2023-02-14T00:44:35.580Z,53.38
2023-02-14T00:47:03.479Z,54.24
2023-02-14T00:49:31.604Z,54.59
2023-02-14T00:52:00.583Z,54.29
2023-02-14T00:54:29.265Z,54.61
2023-02-14T00:57:01.324Z,54.06
2023-02-14T00:59:30.252Z,54.17
2023-02-14T01:01:58.251Z,54.27
2023-02-14T01:04:26.333Z,54.13
2023-02-14T01:06:54.739Z,53.76
2023-02-14T01:09:22.947Z,54.59
2023-02-14T01:11:51.348Z,54.80
2023-02-14T01:14:20.687Z,55.74
2023-02-14T01:16:50.786Z,54.72
2023-02-14T01:19:19.472Z,54.68
2023-02-14T01:21:47.414Z,55.14
2023-02-14T01:24:16.260Z,54.67
2023-02-14T01:26:44.301Z,53.87
2023-02-14T01:29:12.548Z,54.69
2023-02-14T01:31:42.416Z,54.76
2023-02-14T01:34:10.635Z,53.89
2023-02-14T01:36:40.378Z,53.23
2023-02-14T01:39:11.610Z,53.32
2023-02-14T01:41:41.592Z,53.35
2023-02-14T01:44:48.790Z,53.51
2023-02-14T01:47:18.850Z,53.60
2023-02-14T01:49:52.642Z,53.74
2023-02-14T01:52:24.843Z,54.54
2023-02-14T01:54:56.981Z,55.13
2023-02-14T01:57:29.739Z,55.18
2023-02-14T02:00:21.427Z,54.64
2023-02-14T02:02:50.991Z,54.91
2023-02-14T02:05:23.815Z,55.19
2023-02-14T02:07:52.781Z,54.73
2023-02-14T02:10:20.926Z,54.70
2023-02-14T02:12:53.765Z,53.83
2023-02-14T02:15:25.158Z,53.99
2023-02-14T02:18:06.501Z,54.25
2023-02-14T02:21:02.967Z,53.44
2023-02-14T02:24:00.442Z,53.89
2023-02-14T02:27:13.405Z,53.87
2023-02-14T02:30:11.958Z,53.57
2023-02-14T02:33:10.693Z,53.01
2023-02-14T02:35:53.028Z,54.30
2023-02-14T02:38:38.851Z,54.30
2023-02-14T02:41:19.400Z,53.96
2023-02-14T02:43:57.188Z,53.78
2023-02-14T02:46:50.273Z,53.58
2023-02-14T02:49:48.176Z,54.67
2023-02-14T02:52:41.770Z,54.22
2023-02-14T02:55:14.965Z,54.27
2023-02-14T02:57:43.547Z,54.46
2023-02-14T03:00:16.217Z,54.10
2023-02-14T03:03:06.250Z,54.13
2023-02-14T03:05:36.406Z,54.44
2023-02-14T03:08:06.497Z,54.46
2023-02-14T03:10:39.141Z,54.11
2023-02-14T03:13:26.209Z,55.18
2023-02-14T03:16:10.283Z,54.34
2023-02-14T03:19:12.276Z,53.38
2023-02-14T03:21:48.239Z,53.18
2023-02-14T03:24:26.900Z,53.25
2023-02-14T03:27:03.721Z,52.83
2023-02-14T03:29:45.014Z,52.84
2023-02-14T03:32:19.410Z,54.25
2023-02-14T03:34:56.359Z,55.38
2023-02-14T03:37:30.487Z,54.06
2023-02-14T03:40:10.087Z,53.71
2023-02-14T03:42:44.061Z,53.43
2023-02-14T03:45:17.693Z,53.63
2023-02-14T03:47:47.479Z,54.17
2023-02-14T03:50:18.601Z,53.53
2023-02-14T03:52:50.278Z,53.73
2023-02-14T03:55:25.828Z,53.63
2023-02-14T03:57:59.821Z,54.12
2023-02-14T04:00:31.080Z,53.65
2023-02-14T04:03:04.257Z,54.27
2023-02-14T04:05:32.252Z,54.43
2023-02-14T04:08:00.507Z,53.98
2023-02-14T04:10:30.686Z,54.16
2023-02-14T04:12:58.661Z,53.70
2023-02-14T04:15:26.710Z,53.88
2023-02-14T04:18:12.485Z,53.68
2023-02-14T04:20:40.499Z,53.26
2023-02-14T04:23:08.608Z,52.69
2023-02-14T04:25:40.054Z,52.46
2023-02-14T04:28:08.037Z,52.92
2023-02-14T04:30:36.167Z,54.42
2023-02-14T04:33:04.612Z,53.75
2023-02-14T04:35:33.113Z,53.91
2023-02-14T04:38:02.764Z,54.85
2023-02-14T04:40:31.707Z,55.05
2023-02-14T04:43:02.024Z,55.65
2023-02-14T04:45:30.093Z,55.25
2023-02-14T04:47:58.024Z,54.59
2023-02-14T04:50:26.623Z,55.13
2023-02-14T04:52:55.001Z,55.38
2023-02-14T04:55:23.033Z,54.33
2023-02-14T04:57:51.255Z,53.69
2023-02-14T05:00:22.387Z,53.70
2023-02-14T05:02:50.437Z,54.34
2023-02-14T05:05:18.638Z,53.74
2023-02-14T05:07:47.913Z,52.86
2023-02-14T05:10:16.301Z,52.40
2023-02-14T05:12:44.370Z,53.09
2023-02-14T05:15:12.812Z,52.35
2023-02-14T05:17:42.375Z,51.83
2023-02-14T05:20:11.165Z,52.27
2023-02-14T05:22:39.298Z,51.68
2023-02-14T05:25:08.047Z,51.94
2023-02-14T05:27:36.473Z,52.77
2023-02-14T05:30:05.428Z,53.03
2023-02-14T05:32:33.691Z,52.91
2023-02-14T05:35:03.443Z,53.23
2023-02-14T05:37:31.419Z,54.77
2023-02-14T05:39:59.587Z,53.85
2023-02-14T05:42:27.797Z,54.01
2023-02-14T05:44:55.695Z,54.54
2023-02-14T05:47:23.880Z,54.38
2023-02-14T05:49:52.025Z,54.58
2023-02-14T05:52:22.005Z,53.24
2023-02-14T05:54:49.940Z,53.01
2023-02-14T05:57:18.478Z,53.66
2023-02-14T05:59:46.416Z,52.32
2023-02-14T06:02:16.003Z,51.70
2023-02-14T06:04:44.525Z,51.99
2023-02-14T06:07:12.666Z,52.12
2023-02-14T06:09:42.196Z,51.69
2023-02-14T06:12:10.332Z,51.45
2023-02-14T06:14:39.211Z,51.49
2023-02-14T06:17:07.504Z,51.80
2023-02-14T06:19:35.610Z,51.48
2023-02-14T06:22:03.823Z,52.27
2023-02-14T06:24:32.239Z,52.30
2023-02-14T06:27:02.283Z,52.40
2023-02-14T06:29:30.595Z,52.35
2023-02-14T06:32:05.767Z,52.30
2023-02-14T06:34:34.378Z,52.60
2023-02-14T06:37:02.446Z,53.14
2023-02-14T06:39:30.582Z,52.78
2023-02-14T06:41:59.709Z,51.56
2023-02-14T06:44:29.230Z,52.89
2023-02-14T06:46:57.383Z,52.02
2023-02-14T06:49:25.388Z,51.44
2023-02-14T06:51:53.721Z,51.19
2023-02-14T06:54:22.170Z,51.06
2023-02-14T06:56:50.093Z,51.96
2023-02-14T06:59:18.602Z,52.20
2023-02-14T07:01:48.668Z,53.11
2023-02-14T07:04:17.815Z,52.39
2023-02-14T07:06:46.484Z,52.84
2023-02-14T07:09:16.945Z,53.53
2023-02-14T07:11:45.152Z,53.37
2023-02-14T07:14:14.069Z,51.89
2023-02-14T07:16:42.868Z,50.95
2023-02-14T07:19:13.042Z,51.25
2023-02-14T07:21:41.300Z,50.67
2023-02-14T07:24:09.556Z,50.22
2023-02-14T07:26:37.641Z,50.50
2023-02-14T07:29:05.600Z,50.42
2023-02-14T07:31:34.070Z,49.93
2023-02-14T07:34:02.096Z,50.28
2023-02-14T07:36:31.827Z,50.21
2023-02-14T07:38:59.873Z,49.97
2023-02-14T07:41:27.847Z,50.12
2023-02-14T07:43:56.122Z,50.06
2023-02-14T07:46:24.341Z,50.50
2023-02-14T07:48:53.008Z,53.11
2023-02-14T07:51:21.077Z,51.51
2023-02-14T07:53:51.358Z,50.95
2023-02-14T07:56:19.620Z,51.07
2023-02-14T07:58:49.760Z,50.11
2023-02-14T08:01:18.161Z,49.49
2023-02-14T08:03:49.450Z,49.50
2023-02-14T08:06:18.322Z,50.32
2023-02-14T08:08:47.699Z,50.43
2023-02-14T08:11:37.501Z,49.82
2023-02-14T08:14:06.301Z,49.12
2023-02-14T08:16:34.851Z,50.73
2023-02-14T08:19:03.635Z,51.60
2023-02-14T08:21:31.826Z,51.10
2023-02-14T08:24:00.031Z,50.21
2023-02-14T08:26:30.152Z,50.42
2023-02-14T08:28:58.480Z,50.03
2023-02-14T08:31:36.676Z,49.86
2023-02-14T08:34:05.367Z,49.62
2023-02-14T08:36:34.340Z,49.50
2023-02-14T08:39:03.612Z,49.16
2023-02-14T08:41:34.442Z,49.37
2023-02-14T08:44:02.730Z,49.53
2023-02-14T08:46:30.716Z,49.21
2023-02-14T08:48:59.030Z,48.32
2023-02-14T08:51:27.074Z,48.55
2023-02-14T08:53:56.151Z,47.77
2023-02-14T08:56:24.995Z,47.23
2023-02-14T08:58:55.593Z,47.05
2023-02-14T09:01:24.157Z,48.58
2023-02-14T09:03:52.815Z,49.23
2023-02-14T09:06:21.152Z,48.67
2023-02-14T09:08:49.339Z,47.54
2023-02-14T09:11:22.036Z,46.59
2023-02-14T09:13:51.468Z,46.68
2023-02-14T09:16:25.322Z,50.89
2023-02-14T09:18:56.864Z,50.30
2023-02-14T09:21:27.436Z,49.29
2023-02-14T09:23:56.054Z,48.24
2023-02-14T09:26:24.084Z,48.46
2023-02-14T09:28:52.317Z,47.18
2023-02-14T09:31:24.089Z,46.48
2023-02-14T09:33:53.205Z,46.34
2023-02-14T09:36:21.682Z,46.22
2023-02-14T09:38:49.682Z,46.65
2023-02-14T09:41:44.254Z,45.75
2023-02-14T09:44:17.863Z,49.03
2023-02-14T09:46:51.834Z,47.91
2023-02-14T09:49:31.280Z,47.30
2023-02-14T09:52:03.579Z,47.13
2023-02-14T09:54:35.914Z,47.70
2023-02-14T09:57:12.618Z,46.52
2023-02-14T09:59:47.865Z,48.63
2023-02-14T10:02:33.616Z,48.86
2023-02-14T10:05:08.265Z,50.91
2023-02-14T10:07:47.879Z,50.51
2023-02-14T10:10:21.476Z,50.96
2023-02-14T10:12:56.020Z,48.42
2023-02-14T10:15:27.183Z,46.63
2023-02-14T10:18:01.581Z,46.69
2023-02-14T10:20:36.016Z,45.91
2023-02-14T10:23:07.221Z,47.26
2023-02-14T10:25:43.845Z,47.76
2023-02-14T10:28:16.842Z,45.79
2023-02-14T10:31:01.016Z,44.59
2023-02-14T10:33:34.414Z,44.57
2023-02-14T10:36:05.870Z,44.60
2023-02-14T10:38:45.289Z,43.83
2023-02-14T10:41:27.590Z,45.53
2023-02-14T10:44:06.799Z,48.12
2023-02-14T10:46:41.236Z,48.00
2023-02-14T10:49:26.161Z,47.37
2023-02-14T10:51:59.456Z,47.83
2023-02-14T10:54:40.055Z,47.67
2023-02-14T10:57:15.693Z,46.46
2023-02-14T10:59:52.093Z,47.83
2023-02-14T11:02:26.017Z,44.91
2023-02-14T11:04:57.386Z,44.17
2023-02-14T11:07:26.094Z,45.94
2023-02-14T11:09:54.178Z,44.76
2023-02-14T11:12:40.044Z,45.90
2023-02-14T11:15:20.876Z,47.62
2023-02-14T11:17:49.947Z,47.17
2023-02-14T11:20:30.767Z,46.51
2023-02-14T11:22:59.094Z,46.99
2023-02-14T11:25:31.324Z,46.27
2023-02-14T11:28:03.100Z,47.61
2023-02-14T11:30:37.110Z,45.54
2023-02-14T11:33:05.775Z,43.70
2023-02-14T11:35:37.150Z,43.62
2023-02-14T11:38:08.484Z,45.11
2023-02-14T11:40:38.968Z,43.87
2023-02-14T11:43:20.863Z,45.15
2023-02-14T11:45:50.254Z,47.42
2023-02-14T11:48:31.523Z,47.27
2023-02-14T11:51:10.387Z,46.95
2023-02-14T11:53:47.200Z,46.58
2023-02-14T11:56:16.386Z,47.17
2023-02-14T11:58:50.128Z,47.07
2023-02-14T12:01:25.282Z,47.19
2023-02-14T12:03:55.930Z,47.33
2023-02-14T12:06:27.816Z,46.51
2023-02-14T12:09:14.420Z,44.28
2023-02-14T12:11:42.915Z,43.39
2023-02-14T12:14:22.729Z,46.27
2023-02-14T12:16:58.186Z,46.70
2023-02-14T12:19:35.976Z,49.55
2023-02-14T12:22:08.262Z,48.99
2023-02-14T12:24:39.565Z,46.58
2023-02-14T12:27:20.249Z,45.20
2023-02-14T12:29:53.313Z,43.74
2023-02-14T12:32:24.974Z,44.02
2023-02-14T12:34:58.359Z,44.19
2023-02-14T12:37:50.811Z,44.95
2023-02-14T12:40:33.010Z,45.79
2023-02-14T12:43:13.710Z,44.01
2023-02-14T12:46:03.843Z,45.54
2023-02-14T12:48:44.190Z,43.72
2023-02-14T12:51:17.888Z,44.94
2023-02-14T12:54:03.448Z,47.92
2023-02-14T12:56:42.420Z,48.81
2023-02-14T12:59:22.188Z,46.55
2023-02-14T13:02:07.766Z,45.58
2023-02-14T13:04:53.327Z,46.80
2023-02-14T13:07:38.234Z,50.76
2023-02-14T13:10:18.249Z,48.88
2023-02-14T13:12:52.776Z,46.38
2023-02-14T13:15:34.642Z,50.68
2023-02-14T13:18:12.090Z,50.53
2023-02-14T13:20:48.904Z,48.13
2023-02-14T13:23:21.725Z,45.98
2023-02-14T13:25:55.704Z,44.70
2023-02-14T13:28:25.606Z,44.24
2023-02-14T13:30:56.263Z,44.90
2023-02-14T13:33:29.349Z,44.23
2023-02-14T13:36:01.846Z,45.84
2023-02-14T13:38:33.095Z,44.32
2023-02-14T13:41:05.477Z,44.53
2023-02-14T13:43:51.841Z,42.64
2023-02-14T13:46:22.397Z,47.35
2023-02-14T13:48:59.894Z,45.57
2023-02-14T13:51:48.703Z,45.88
2023-02-14T13:54:31.178Z,46.21
2023-02-14T13:57:02.481Z,47.69
2023-02-14T13:59:33.057Z,46.04
2023-02-14T14:02:32.998Z,44.18
2023-02-14T14:05:01.994Z,45.42
2023-02-14T14:07:31.445Z,45.03
2023-02-14T14:10:05.044Z,47.75
2023-02-14T14:12:46.090Z,48.34
2023-02-14T14:15:20.528Z,48.95
2023-02-14T14:18:05.178Z,47.78
2023-02-14T14:20:49.282Z,48.02
2023-02-14T14:23:31.281Z,47.88
2023-02-14T14:26:01.281Z,47.42
2023-02-14T14:28:33.452Z,47.79
2023-02-14T14:31:02.043Z,47.52
2023-02-14T14:33:32.992Z,46.96
2023-02-14T14:36:06.045Z,46.16
2023-02-14T14:38:46.606Z,45.25
2023-02-14T14:41:14.940Z,46.39
2023-02-14T14:43:45.157Z,47.85
2023-02-14T14:46:14.546Z,47.95
2023-02-14T14:48:45.927Z,48.76
2023-02-14T14:51:23.737Z,47.84
2023-02-14T14:53:55.890Z,48.67
2023-02-14T14:56:26.670Z,48.64
2023-02-14T14:58:57.133Z,48.85
2023-02-14T15:01:37.345Z,49.05
2023-02-14T15:04:13.297Z,49.80
2023-02-14T15:06:42.263Z,48.83
2023-02-14T15:09:16.160Z,48.82
2023-02-14T15:12:04.322Z,49.55
2023-02-14T15:14:42.440Z,50.22
2023-02-14T15:17:19.293Z,49.30
2023-02-14T15:19:51.070Z,49.90
2023-02-14T15:22:21.721Z,49.13
2023-02-14T15:24:50.613Z,51.38
2023-02-14T15:27:21.679Z,50.20
2023-02-14T15:29:59.351Z,50.57
2023-02-14T15:32:31.171Z,49.37
2023-02-14T15:35:00.721Z,50.50
2023-02-14T15:37:29.240Z,51.04
2023-02-14T15:39:59.539Z,51.31
2023-02-14T15:42:31.669Z,51.30
2023-02-14T15:45:18.184Z,51.50
2023-02-14T15:47:50.817Z,52.02
2023-02-14T15:50:24.264Z,51.94
2023-02-14T15:52:53.915Z,51.00
2023-02-14T15:55:26.532Z,50.89
2023-02-14T15:57:57.794Z,50.61
2023-02-14T16:00:28.201Z,51.42
2023-02-14T16:03:00.856Z,51.71
2023-02-14T16:05:29.497Z,51.52
2023-02-14T16:07:59.465Z,52.19
2023-02-14T16:10:29.440Z,53.56
2023-02-14T16:13:00.527Z,52.98
2023-02-14T16:15:32.969Z,52.50
2023-02-14T16:18:07.645Z,52.76
2023-02-14T16:20:41.933Z,51.81
2023-02-14T16:23:18.928Z,52.49
2023-02-14T16:25:47.956Z,52.86
2023-02-14T16:28:16.864Z,53.51
2023-02-14T16:30:49.300Z,52.49
2023-02-14T16:33:22.020Z,51.87
2023-02-14T16:35:51.107Z,52.81
2023-02-14T16:38:21.181Z,52.86
2023-02-14T16:40:51.698Z,52.93
2023-02-14T16:43:21.484Z,53.33
2023-02-14T16:45:51.107Z,53.29
2023-02-14T16:48:19.739Z,54.02
2023-02-14T16:50:48.707Z,55.08
2023-02-14T16:53:27.141Z,55.95
2023-02-14T16:55:58.192Z,55.69
2023-02-14T16:58:31.129Z,55.55
2023-02-14T17:01:01.209Z,56.86
2023-02-14T17:03:29.731Z,56.78
2023-02-14T17:05:59.455Z,55.80
2023-02-14T17:08:27.875Z,56.47
2023-02-14T17:10:57.689Z,55.39
2023-02-14T17:13:28.241Z,55.04
2023-02-14T17:15:57.466Z,56.05
2023-02-14T17:18:27.462Z,56.95
2023-02-14T17:20:56.414Z,56.47
2023-02-14T17:23:24.764Z,56.22
2023-02-14T17:25:53.006Z,57.11
2023-02-14T17:28:21.352Z,57.63
2023-02-14T17:30:49.655Z,57.08
2023-02-14T17:33:17.883Z,56.47
2023-02-14T17:35:47.369Z,56.40
2023-02-14T17:38:16.467Z,57.25
2023-02-14T17:40:44.527Z,57.53
2023-02-14T17:43:12.550Z,57.37
2023-02-14T17:45:41.064Z,57.55
2023-02-14T17:48:11.674Z,57.55
2023-02-14T17:50:40.022Z,58.73
2023-02-14T17:53:09.723Z,59.06
2023-02-14T17:55:38.817Z,58.15
2023-02-14T17:58:06.933Z,59.25
2023-02-14T18:00:35.678Z,58.37
2023-02-14T18:03:04.209Z,58.07
2023-02-14T18:05:32.616Z,59.03
2023-02-14T18:08:00.727Z,59.42
2023-02-14T18:10:30.232Z,59.08
2023-02-14T18:12:58.718Z,58.18
2023-02-14T18:15:27.769Z,57.81
2023-02-14T18:17:56.166Z,58.28
2023-02-14T18:20:24.548Z,58.27
2023-02-14T18:22:52.501Z,58.57
2023-02-14T18:25:20.856Z,58.32
2023-02-14T18:27:50.489Z,56.88
2023-02-14T18:30:19.372Z,56.79
2023-02-14T18:32:47.971Z,57.88
2023-02-14T18:35:16.534Z,58.25
2023-02-14T18:37:44.730Z,58.54
2023-02-14T18:40:20.265Z,58.12
2023-02-14T18:42:48.502Z,57.42
2023-02-14T18:45:18.491Z,57.51
2023-02-14T18:47:46.937Z,56.79
2023-02-14T18:50:15.490Z,56.38
2023-02-14T18:52:43.596Z,57.47
2023-02-14T18:55:13.698Z,58.57
2023-02-14T18:57:41.749Z,59.04
2023-02-14T19:00:12.384Z,57.60
2023-02-14T19:02:42.004Z,56.11
2023-02-14T19:05:11.557Z,56.60
2023-02-14T19:07:39.930Z,55.90
2023-02-14T19:10:09.369Z,54.84
2023-02-14T19:12:37.837Z,54.92
2023-02-14T19:15:07.027Z,55.63
2023-02-14T19:17:36.478Z,55.84
2023-02-14T19:20:08.755Z,55.65
2023-02-14T19:22:40.246Z,55.61
2023-02-14T19:25:09.044Z,55.98
2023-02-14T19:27:37.352Z,56.31
2023-02-14T19:30:06.616Z,56.20
2023-02-14T19:32:35.005Z,56.83
2023-02-14T19:35:03.078Z,57.61
2023-02-14T19:37:33.161Z,57.43
2023-02-14T19:40:01.651Z,57.60
2023-02-14T19:42:29.783Z,58.08
2023-02-14T19:44:58.200Z,57.97
2023-02-14T19:47:39.885Z,58.78
2023-02-14T19:50:14.571Z,58.40
2023-02-14T19:52:44.682Z,59.57
2023-02-14T19:55:22.516Z,59.24
2023-02-14T19:57:50.566Z,59.88
2023-02-14T20:00:21.143Z,58.89
2023-02-14T20:02:49.512Z,61.09
2023-02-14T20:05:18.830Z,59.97
2023-02-14T20:07:52.015Z,59.35
2023-02-14T20:10:21.405Z,59.22
2023-02-14T20:12:49.672Z,58.07
2023-02-14T20:15:18.088Z,57.79
2023-02-14T20:17:46.185Z,57.29
2023-02-14T20:20:16.093Z,55.67
2023-02-14T20:22:44.406Z,54.17
2023-02-14T20:25:14.102Z,54.42
2023-02-14T20:27:42.370Z,55.90
2023-02-14T20:30:11.591Z,56.47
2023-02-14T20:32:39.639Z,56.86
2023-02-14T20:35:08.608Z,57.10
2023-02-14T20:37:36.806Z,57.81
2023-02-14T20:40:07.084Z,58.24
2023-02-14T20:42:38.313Z,56.50
2023-02-14T20:45:07.101Z,55.45
2023-02-14T20:47:35.400Z,56.24
2023-02-14T20:50:03.911Z,56.71
2023-02-14T20:52:31.954Z,56.91
2023-02-14T20:55:00.197Z,57.36
2023-02-14T20:57:29.874Z,57.15
2023-02-14T20:59:59.503Z,58.75
2023-02-14T21:02:27.843Z,59.52
2023-02-14T21:05:00.237Z,59.30
2023-02-14T21:07:30.825Z,60.12
2023-02-14T21:09:59.089Z,61.03
2023-02-14T21:12:27.151Z,60.77
2023-02-14T21:14:55.210Z,60.04
2023-02-14T21:17:24.583Z,59.07
2023-02-14T21:19:53.164Z,60.18
2023-02-14T21:22:21.785Z,60.42
2023-02-14T21:24:50.199Z,60.77
2023-02-14T21:27:18.307Z,60.66
2023-02-14T21:29:46.204Z,60.14
2023-02-14T21:32:14.959Z,60.03
2023-02-14T21:34:45.008Z,59.11
2023-02-14T21:37:13.462Z,59.51
2023-02-14T21:39:41.775Z,60.22
2023-02-14T21:42:11.988Z,61.86
2023-02-14T21:44:57.800Z,61.94
2023-02-14T21:47:26.367Z,60.81
2023-02-14T21:50:13.161Z,61.66
2023-02-14T21:52:41.769Z,61.28
2023-02-14T21:55:10.538Z,60.77
2023-02-14T21:57:38.982Z,62.00
2023-02-14T22:00:09.676Z,62.72
2023-02-14T22:02:40.642Z,62.16
2023-02-14T22:05:10.098Z,61.57
2023-02-14T22:07:38.404Z,62.36
2023-02-14T22:10:07.564Z,62.76
2023-02-14T22:12:35.815Z,61.92
2023-02-14T22:15:04.441Z,62.15
2023-02-14T22:17:34.053Z,62.24
2023-02-14T22:20:02.486Z,61.84
2023-02-14T22:22:34.062Z,62.22
2023-02-14T22:25:02.654Z,62.02
2023-02-14T22:27:31.215Z,62.37
2023-02-14T22:29:59.372Z,62.00
2023-02-14T22:32:27.358Z,61.81
2023-02-14T22:34:55.877Z,61.75
2023-02-14T22:37:23.872Z,62.61
2023-02-14T22:39:53.254Z,61.45
2023-02-14T22:42:21.302Z,61.60
2023-02-14T22:44:49.295Z,61.62
2023-02-14T22:47:17.748Z,61.35
2023-02-14T22:49:45.932Z,61.45
2023-02-14T22:52:13.848Z,61.77
2023-02-14T22:54:42.077Z,61.37
2023-02-14T22:57:11.417Z,62.43
2023-02-14T22:59:40.230Z,62.04
2023-02-14T23:02:09.853Z,62.01
2023-02-14T23:04:38.305Z,61.46
2023-02-14T23:07:06.248Z,62.02
2023-02-14T23:09:34.510Z,62.51
2023-02-14T23:12:02.674Z,61.99
2023-02-14T23:14:49.504Z,62.17
2023-02-14T23:17:34.885Z,61.44
2023-02-14T23:20:20.889Z,60.90
2023-02-14T23:22:49.362Z,61.50
2023-02-14T23:25:17.683Z,61.00
2023-02-14T23:27:47.552Z,61.22
2023-02-14T23:30:20.435Z,61.60
2023-02-14T23:32:48.418Z,62.00
2023-02-14T23:35:17.480Z,62.19
2023-02-14T23:37:45.817Z,61.36
2023-02-14T23:40:14.179Z,61.67
2023-02-14T23:42:42.268Z,63.07
2023-02-14T23:45:27.866Z,62.19
2023-02-14T23:47:57.556Z,62.35
2023-02-14T23:50:26.090Z,62.36
2023-02-14T23:52:54.178Z,61.58
2023-02-14T23:55:22.569Z,60.86
2023-02-14T23:57:50.627Z,61.55
